createdAt,value
2023-04-07T00:01:38.313Z,3.15
2023-04-07T00:04:04.763Z,3.04
2023-04-07T00:06:31.112Z,2.88
2023-04-07T00:08:57.314Z,2.97
2023-04-07T00:11:23.534Z,2.88
2023-04-07T00:13:49.763Z,3.01
2023-04-07T00:16:15.989Z,2.96
2023-04-07T00:18:42.235Z,3.03
2023-04-07T00:21:08.440Z,3.00
2023-04-07T00:23:34.787Z,2.93
2023-04-07T00:26:00.992Z,3.09
2023-04-07T00:28:27.205Z,3.04
2023-04-07T00:30:53.445Z,2.89
2023-04-07T00:33:19.764Z,2.76
2023-04-07T00:35:46.013Z,2.73
2023-04-07T00:38:12.236Z,2.71
2023-04-07T00:40:38.452Z,2.59
2023-04-07T00:43:04.658Z,2.54
2023-04-07T00:45:30.875Z,2.51
2023-04-07T00:47:57.397Z,2.64
2023-04-07T00:50:23.635Z,2.60
2023-04-07T00:52:50.074Z,2.35
2023-04-07T00:55:16.329Z,2.08
2023-04-07T00:57:42.528Z,2.14
2023-04-07T01:00:08.919Z,2.11
2023-04-07T01:02:41.645Z,2.05
2023-04-07T01:05:13.416Z,2.48
2023-04-07T01:08:00.191Z,2.46
2023-04-07T01:10:43.820Z,2.51
2023-04-07T01:13:13.905Z,2.50
2023-04-07T01:15:40.160Z,2.47
2023-04-07T01:18:17.559Z,2.18
2023-04-07T01:20:43.794Z,1.94
2023-04-07T01:23:09.992Z,1.94
2023-04-07T01:25:36.178Z,1.81
2023-04-07T01:28:09.570Z,1.84
2023-04-07T01:30:36.054Z,1.97
2023-04-07T01:33:02.321Z,1.74
2023-04-07T01:35:29.432Z,1.70
2023-04-07T01:37:55.685Z,1.63
2023-04-07T01:40:21.940Z,1.63
2023-04-07T01:42:48.262Z,1.57
2023-04-07T01:45:14.495Z,1.52
2023-04-07T01:47:40.718Z,1.71
2023-04-07T01:50:07.234Z,1.62
2023-04-07T01:52:33.478Z,1.64
2023-04-07T01:54:59.701Z,1.73
2023-04-07T01:57:25.982Z,1.51
2023-04-07T01:59:52.869Z,1.50
2023-04-07T02:02:19.176Z,1.64
2023-04-07T02:04:54.769Z,1.44
2023-04-07T02:07:22.118Z,1.57
2023-04-07T02:09:48.335Z,1.52
2023-04-07T02:12:14.571Z,1.53
2023-04-07T02:14:40.785Z,1.66
2023-04-07T02:17:06.995Z,1.50
2023-04-07T02:19:33.533Z,1.64
2023-04-07T02:21:59.745Z,1.45
2023-04-07T02:24:25.946Z,1.45
2023-04-07T02:26:52.149Z,1.43
2023-04-07T02:29:18.350Z,1.30
2023-04-07T02:31:44.601Z,1.18
2023-04-07T02:34:10.825Z,1.34
2023-04-07T02:36:37.081Z,1.08
2023-04-07T02:39:03.302Z,1.15
2023-04-07T02:41:29.515Z,1.15
2023-04-07T02:43:55.975Z,0.92
2023-04-07T02:46:22.383Z,0.69
2023-04-07T02:48:48.619Z,0.74
2023-04-07T02:51:14.840Z,0.72
2023-04-07T02:53:41.048Z,0.63
2023-04-07T02:56:07.268Z,0.55
2023-04-07T02:58:33.478Z,0.74
2023-04-07T03:00:59.728Z,0.65
2023-04-07T03:03:26.069Z,0.53
2023-04-07T03:05:52.440Z,0.54
2023-04-07T03:08:18.647Z,0.48
2023-04-07T03:10:44.887Z,0.41
2023-04-07T03:13:11.100Z,0.34
2023-04-07T03:15:37.293Z,0.26
2023-04-07T03:18:03.596Z,0.22
2023-04-07T03:20:29.903Z,0.19
2023-04-07T03:22:56.124Z,0.15
2023-04-07T03:25:22.356Z,0.12
2023-04-07T03:27:48.582Z,0.11
2023-04-07T03:30:14.793Z,0.24
2023-04-07T03:32:41.059Z,0.26
2023-04-07T03:35:07.516Z,0.31
2023-04-07T03:37:33.735Z,0.39
2023-04-07T03:39:59.927Z,0.26
2023-04-07T03:42:26.163Z,0.17
2023-04-07T03:44:52.363Z,0.14
2023-04-07T03:47:18.603Z,0.12
2023-04-07T03:49:44.800Z,0.08
2023-04-07T03:52:11.407Z,0.00
2023-04-07T03:54:37.615Z,-0.13
2023-04-07T03:57:03.837Z,0.02
2023-04-07T03:59:30.056Z,0.08
2023-04-07T04:01:56.349Z,0.15
2023-04-07T04:04:22.628Z,0.14
2023-04-07T04:06:48.938Z,0.21
2023-04-07T04:09:15.161Z,0.19
2023-04-07T04:11:41.374Z,0.40
2023-04-07T04:14:07.573Z,0.18
2023-04-07T04:16:35.555Z,0.23
2023-04-07T04:19:01.814Z,0.42
2023-04-07T04:21:28.040Z,0.44
2023-04-07T04:23:54.512Z,0.29
2023-04-07T04:26:20.875Z,0.31
2023-04-07T04:28:47.094Z,0.30
2023-04-07T04:31:13.354Z,-0.06
2023-04-07T04:33:39.611Z,-0.34
2023-04-07T04:36:05.994Z,-0.31
2023-04-07T04:38:32.223Z,-0.36
2023-04-07T04:40:58.433Z,-0.51
2023-04-07T04:43:24.668Z,-0.57
2023-04-07T04:45:50.881Z,-0.54
2023-04-07T04:48:17.101Z,-0.48
2023-04-07T04:50:43.320Z,-0.39
2023-04-07T04:53:09.559Z,-0.45
2023-04-07T04:55:35.990Z,-0.23
2023-04-07T04:58:02.197Z,-0.11
2023-04-07T05:00:28.473Z,0.03
2023-04-07T05:02:54.913Z,0.40
2023-04-07T05:05:21.458Z,0.67
2023-04-07T05:07:47.782Z,0.74
2023-04-07T05:10:14.001Z,0.71
2023-04-07T05:12:40.251Z,0.76
2023-04-07T05:15:06.811Z,1.01
2023-04-07T05:17:33.078Z,1.44
2023-04-07T05:19:59.300Z,1.81
2023-04-07T05:22:25.521Z,2.01
2023-04-07T05:24:51.742Z,2.33
2023-04-07T05:27:17.965Z,2.72
2023-04-07T05:29:44.171Z,2.67
2023-04-07T05:32:10.382Z,2.32
2023-04-07T05:34:36.598Z,1.92
2023-04-07T05:37:02.828Z,1.88
2023-04-07T05:39:29.031Z,1.62
2023-04-07T05:41:55.281Z,1.65
2023-04-07T05:44:21.483Z,1.55
2023-04-07T05:46:47.695Z,1.47
2023-04-07T05:49:20.215Z,1.46
2023-04-07T05:51:48.365Z,1.50
2023-04-07T05:54:15.248Z,1.57
2023-04-07T05:56:41.479Z,1.77
2023-04-07T05:59:07.695Z,2.06
2023-04-07T06:01:33.906Z,2.13
2023-04-07T06:04:00.204Z,2.11
2023-04-07T06:06:26.452Z,2.19
2023-04-07T06:08:52.686Z,2.67
2023-04-07T06:11:18.905Z,3.23
2023-04-07T06:13:45.127Z,3.64
2023-04-07T06:16:11.373Z,3.90
2023-04-07T06:18:37.641Z,4.09
2023-04-07T06:21:03.863Z,4.20
2023-04-07T06:23:30.403Z,4.41
2023-04-07T06:25:56.613Z,4.14
2023-04-07T06:28:22.840Z,3.83
2023-04-07T06:30:49.144Z,3.53
2023-04-07T06:33:15.364Z,3.62
2023-04-07T06:35:41.580Z,3.83
2023-04-07T06:38:07.799Z,3.80
2023-04-07T06:40:34.049Z,4.07
2023-04-07T06:43:00.251Z,4.13
2023-04-07T06:45:26.477Z,4.43
2023-04-07T06:47:52.787Z,4.42
2023-04-07T06:50:19.057Z,4.62
2023-04-07T06:52:45.271Z,4.61
2023-04-07T06:55:11.515Z,4.38
2023-04-07T06:57:37.723Z,4.18
2023-04-07T07:00:04.066Z,4.30
2023-04-07T07:02:30.603Z,4.51
2023-04-07T07:04:56.948Z,4.66
2023-04-07T07:07:23.162Z,4.87
2023-04-07T07:09:49.362Z,5.10
2023-04-07T07:12:15.592Z,5.12
2023-04-07T07:14:41.846Z,5.25
2023-04-07T07:17:08.053Z,5.11
2023-04-07T07:19:34.264Z,5.27
2023-04-07T07:22:00.979Z,5.24
2023-04-07T07:24:27.179Z,5.21
2023-04-07T07:26:53.376Z,5.28
2023-04-07T07:29:20.248Z,5.31
2023-04-07T07:31:46.440Z,5.49
2023-04-07T07:34:12.650Z,5.49
2023-04-07T07:36:38.858Z,5.45
2023-04-07T07:39:05.074Z,5.01
2023-04-07T07:41:31.268Z,5.44
2023-04-07T07:43:57.495Z,5.44
2023-04-07T07:46:23.768Z,5.42
2023-04-07T07:48:50.217Z,5.34
2023-04-07T07:51:16.421Z,5.39
2023-04-07T07:53:42.650Z,5.41
2023-04-07T07:56:08.877Z,5.53
2023-04-07T07:58:35.091Z,5.61
2023-04-07T08:01:01.318Z,5.69
2023-04-07T08:03:27.878Z,5.33
2023-04-07T08:05:54.180Z,5.65
2023-04-07T08:08:20.508Z,5.64
2023-04-07T08:10:46.724Z,5.82
2023-04-07T08:13:12.935Z,6.10
2023-04-07T08:15:39.350Z,6.29
2023-04-07T08:18:05.606Z,6.48
2023-04-07T08:20:31.983Z,6.63
2023-04-07T08:22:58.193Z,6.64
2023-04-07T08:25:24.383Z,6.97
2023-04-07T08:27:50.584Z,7.01
2023-04-07T08:30:16.816Z,7.19
2023-04-07T08:32:43.703Z,7.66
2023-04-07T08:35:09.976Z,8.07
2023-04-07T08:37:36.307Z,7.85
2023-04-07T08:40:02.551Z,7.88
2023-04-07T08:42:29.682Z,7.69
2023-04-07T08:44:56.304Z,7.24
2023-04-07T08:47:22.678Z,6.91
2023-04-07T08:49:48.934Z,7.04
2023-04-07T08:52:15.132Z,7.71
2023-04-07T08:54:41.338Z,7.81
2023-04-07T08:57:07.812Z,8.19
2023-04-07T08:59:34.121Z,7.65
2023-04-07T09:02:00.351Z,7.34
2023-04-07T09:04:26.574Z,7.80
2023-04-07T09:06:52.780Z,7.37
2023-04-07T09:09:18.994Z,6.56
2023-04-07T09:11:45.192Z,6.75
2023-04-07T09:14:11.405Z,6.91
2023-04-07T09:16:37.684Z,7.34
2023-04-07T09:19:04.063Z,7.40
2023-04-07T09:21:46.611Z,7.39
2023-04-07T09:24:22.885Z,7.04
2023-04-07T09:26:49.091Z,7.28
2023-04-07T09:29:18.956Z,7.29
2023-04-07T09:31:45.808Z,7.28
2023-04-07T09:34:23.543Z,7.20
2023-04-07T09:36:49.878Z,7.29
2023-04-07T09:39:16.092Z,7.39
2023-04-07T09:41:42.326Z,7.22
2023-04-07T09:44:08.632Z,7.25
2023-04-07T09:46:34.928Z,7.20
2023-04-07T09:49:01.860Z,7.47
2023-04-07T09:51:28.062Z,7.68
2023-04-07T09:53:54.302Z,7.54
2023-04-07T09:56:20.768Z,7.41
2023-04-07T09:58:46.985Z,7.52
2023-04-07T10:01:13.533Z,7.79
2023-04-07T10:03:39.941Z,7.71
2023-04-07T10:06:06.552Z,8.00
2023-04-07T10:08:33.273Z,7.64
2023-04-07T10:11:00.757Z,7.79
2023-04-07T10:13:27.016Z,7.34
2023-04-07T10:15:53.237Z,7.64
2023-04-07T10:18:20.235Z,7.61
2023-04-07T10:20:47.328Z,7.65
2023-04-07T10:23:16.321Z,7.62
2023-04-07T10:25:42.536Z,7.71
2023-04-07T10:28:08.775Z,7.28
2023-04-07T10:30:34.985Z,7.38
2023-04-07T10:33:01.327Z,7.84
2023-04-07T10:35:27.664Z,7.93
2023-04-07T10:38:09.008Z,7.82
2023-04-07T10:40:35.552Z,7.83
2023-04-07T10:43:01.808Z,7.89
2023-04-07T10:45:46.935Z,7.64
2023-04-07T10:48:13.349Z,8.26
2023-04-07T10:50:39.573Z,8.14
2023-04-07T10:53:05.718Z,7.85
2023-04-07T10:55:38.505Z,7.49
2023-04-07T10:58:12.813Z,7.18
2023-04-07T11:00:39.024Z,7.21
2023-04-07T11:03:10.170Z,7.18
2023-04-07T11:05:36.509Z,7.38
2023-04-07T11:08:02.727Z,7.37
2023-04-07T11:10:28.957Z,7.18
2023-04-07T11:12:58.939Z,7.06
2023-04-07T11:15:25.161Z,6.86
2023-04-07T11:18:30.014Z,6.63
2023-04-07T11:20:56.803Z,6.84
2023-04-07T11:23:23.405Z,6.81
2023-04-07T11:25:50.069Z,6.92
2023-04-07T11:28:16.330Z,6.99
2023-04-07T11:30:49.658Z,7.11
2023-04-07T11:33:16.526Z,6.82
2023-04-07T11:35:49.674Z,6.69
2023-04-07T11:38:15.894Z,6.33
2023-04-07T11:40:42.110Z,6.64
2023-04-07T11:43:17.355Z,6.52
2023-04-07T11:45:43.637Z,6.46
2023-04-07T11:48:28.363Z,6.43
2023-04-07T11:50:54.574Z,6.42
2023-04-07T11:53:50.424Z,6.29
2023-04-07T11:56:16.859Z,6.07
2023-04-07T11:58:49.485Z,6.16
2023-04-07T12:01:15.693Z,6.25
2023-04-07T12:03:54.911Z,6.11
2023-04-07T12:06:30.997Z,6.25
2023-04-07T12:08:57.191Z,6.08
2023-04-07T12:11:23.405Z,5.86
2023-04-07T12:13:50.005Z,6.10
2023-04-07T12:16:16.560Z,6.06
2023-04-07T12:18:42.826Z,6.07
2023-04-07T12:21:09.044Z,6.14
2023-04-07T12:23:35.250Z,6.27
2023-04-07T12:26:01.474Z,6.09
2023-04-07T12:28:27.692Z,6.06
2023-04-07T12:30:54.177Z,5.99
2023-04-07T12:33:20.393Z,5.94
2023-04-07T12:35:46.765Z,5.89
2023-04-07T12:38:13.211Z,5.80
2023-04-07T12:40:39.406Z,5.74
2023-04-07T12:43:05.627Z,5.69
2023-04-07T12:45:31.816Z,5.75
2023-04-07T12:47:58.168Z,5.62
2023-04-07T12:50:24.460Z,5.58
2023-04-07T12:52:50.997Z,5.60
2023-04-07T12:55:17.182Z,5.59
2023-04-07T12:57:43.395Z,5.57
2023-04-07T13:00:09.838Z,5.47
2023-04-07T13:02:36.146Z,5.48
2023-04-07T13:05:02.540Z,5.53
2023-04-07T13:07:28.756Z,5.70
2023-04-07T13:09:54.965Z,5.67
2023-04-07T13:12:21.181Z,5.48
2023-04-07T13:14:59.080Z,5.59
2023-04-07T13:17:25.808Z,5.70
2023-04-07T13:19:52.031Z,5.71
2023-04-07T13:22:21.895Z,5.48
2023-04-07T13:24:49.518Z,5.65
2023-04-07T13:27:15.719Z,5.66
2023-04-07T13:29:41.926Z,5.62
2023-04-07T13:32:08.332Z,5.57
2023-04-07T13:34:34.999Z,5.48
2023-04-07T13:37:01.584Z,5.59
2023-04-07T13:39:27.828Z,5.59
2023-04-07T13:41:54.060Z,5.59
2023-04-07T13:44:20.263Z,5.53
2023-04-07T13:46:46.504Z,5.57
2023-04-07T13:49:12.745Z,5.55
2023-04-07T13:51:38.956Z,5.49
2023-04-07T13:54:05.199Z,5.49
2023-04-07T13:56:31.432Z,5.56
2023-04-07T13:58:57.667Z,5.47
2023-04-07T14:01:23.896Z,5.46
2023-04-07T14:03:50.426Z,5.47
2023-04-07T14:06:16.889Z,5.39
2023-04-07T14:08:43.105Z,5.37
2023-04-07T14:11:09.308Z,5.37
2023-04-07T14:13:35.515Z,5.32
2023-04-07T14:16:01.858Z,5.29
2023-04-07T14:18:28.126Z,5.30
2023-04-07T14:20:54.325Z,5.28
2023-04-07T14:23:30.270Z,5.34
2023-04-07T14:26:02.631Z,5.25
2023-04-07T14:28:28.867Z,5.22
2023-04-07T14:30:55.075Z,5.10
2023-04-07T14:33:21.470Z,5.19
2023-04-07T14:35:47.983Z,5.17
2023-04-07T14:38:14.236Z,5.15
2023-04-07T14:40:40.692Z,5.18
2023-04-07T14:43:07.727Z,5.20
2023-04-07T14:45:34.306Z,5.27
2023-04-07T14:48:00.559Z,5.30
2023-04-07T14:50:26.785Z,5.20
2023-04-07T14:52:52.989Z,5.21
2023-04-07T14:55:19.336Z,5.19
2023-04-07T14:57:45.764Z,5.23
2023-04-07T15:00:12.144Z,5.27
2023-04-07T15:02:38.856Z,5.26
2023-04-07T15:05:05.941Z,5.18
2023-04-07T15:07:32.142Z,5.11
2023-04-07T15:09:58.373Z,5.20
2023-04-07T15:12:24.595Z,5.20
2023-04-07T15:14:50.830Z,5.08
2023-04-07T15:17:17.024Z,5.01
2023-04-07T15:19:43.246Z,4.93
2023-04-07T15:22:09.437Z,4.92
2023-04-07T15:24:35.647Z,4.89
2023-04-07T15:27:01.850Z,4.90
2023-04-07T15:29:28.087Z,4.89
2023-04-07T15:31:54.339Z,4.85
2023-04-07T15:34:20.579Z,4.82
2023-04-07T15:36:46.786Z,4.85
2023-04-07T15:39:13.019Z,4.82
2023-04-07T15:41:39.224Z,4.82
2023-04-07T15:44:05.477Z,4.86
2023-04-07T15:46:31.722Z,4.75
2023-04-07T15:48:57.981Z,4.80
2023-04-07T15:51:24.193Z,4.83
2023-04-07T15:53:50.588Z,4.83
2023-04-07T15:56:16.890Z,4.87
2023-04-07T15:58:43.095Z,4.86
2023-04-07T16:01:09.351Z,4.84
2023-04-07T16:03:35.651Z,4.80
2023-04-07T16:06:01.901Z,4.81
2023-04-07T16:08:28.130Z,4.77
2023-04-07T16:10:54.373Z,4.77
2023-04-07T16:13:20.687Z,4.84
2023-04-07T16:15:46.914Z,4.86
2023-04-07T16:18:13.137Z,4.81
2023-04-07T16:20:39.390Z,4.85
2023-04-07T16:23:05.640Z,4.89
2023-04-07T16:28:24.012Z,4.82
2023-04-07T16:30:54.578Z,4.84
2023-04-07T16:33:25.966Z,4.83
2023-04-07T16:35:52.400Z,4.82
2023-04-07T16:38:18.645Z,4.82
2023-04-07T16:40:56.813Z,4.83
2023-04-07T16:43:38.843Z,4.81
2023-04-07T16:46:05.189Z,4.83
2023-04-07T16:48:31.427Z,4.84
2023-04-07T16:50:57.624Z,4.82
2023-04-07T16:53:25.116Z,4.85
2023-04-07T16:55:51.368Z,4.83
2023-04-07T16:58:17.584Z,4.85
2023-04-07T17:00:43.818Z,4.82
2023-04-07T17:03:10.163Z,4.85
2023-04-07T17:05:36.539Z,4.86
2023-04-07T17:08:02.789Z,4.86
2023-04-07T17:10:28.998Z,4.87
2023-04-07T17:12:55.257Z,4.82
2023-04-07T17:15:22.040Z,4.84
2023-04-07T17:17:48.430Z,4.76
2023-04-07T17:20:14.670Z,4.77
2023-04-07T17:22:40.871Z,4.76
2023-04-07T17:25:07.322Z,4.75
2023-04-07T17:27:33.559Z,4.80
2023-04-07T17:29:59.775Z,4.75
2023-04-07T17:32:26.125Z,4.73
2023-04-07T17:34:52.405Z,4.81
2023-04-07T17:37:18.651Z,4.80
2023-04-07T17:39:44.883Z,4.77
2023-04-07T17:42:11.184Z,4.72
2023-04-07T17:44:37.453Z,4.72
2023-04-07T17:47:03.667Z,4.70
2023-04-07T17:49:29.928Z,4.72
2023-04-07T17:51:56.127Z,4.69
2023-04-07T17:54:22.387Z,4.69
2023-04-07T17:56:48.897Z,4.72
2023-04-07T17:59:15.144Z,4.70
2023-04-07T18:01:41.482Z,4.69
2023-04-07T18:04:07.813Z,4.71
2023-04-07T18:06:34.165Z,4.70
2023-04-07T18:09:00.397Z,4.72
2023-04-07T18:11:26.603Z,4.73
2023-04-07T18:13:52.825Z,4.67
2023-04-07T18:16:21.892Z,4.68
2023-04-07T18:18:48.589Z,4.71
2023-04-07T18:21:14.827Z,4.65
2023-04-07T18:23:41.069Z,4.60
2023-04-07T18:26:07.355Z,4.61
2023-04-07T18:28:33.564Z,4.61
2023-04-07T18:31:08.813Z,4.67
2023-04-07T18:33:35.226Z,4.61
2023-04-07T18:36:05.056Z,4.60
2023-04-07T18:38:31.356Z,4.59
2023-04-07T18:40:57.567Z,4.58
2023-04-07T18:43:23.782Z,4.56
2023-04-07T18:45:50.036Z,4.59
2023-04-07T18:48:16.266Z,4.59
2023-04-07T18:50:42.492Z,4.59
2023-04-07T18:53:08.698Z,4.55
2023-04-07T18:55:34.904Z,4.54
2023-04-07T18:58:01.138Z,4.55
2023-04-07T19:00:27.352Z,4.56
2023-04-07T19:02:53.758Z,4.59
2023-04-07T19:05:23.042Z,4.55
2023-04-07T19:07:51.432Z,4.55
2023-04-07T19:10:17.643Z,4.57
2023-04-07T19:12:44.327Z,4.55
2023-04-07T19:15:10.783Z,4.58
2023-04-07T19:17:37.064Z,4.55
2023-04-07T19:20:03.341Z,4.55
2023-04-07T19:22:29.562Z,4.57
2023-04-07T19:24:55.791Z,4.53
2023-04-07T19:27:22.045Z,4.57
2023-04-07T19:29:48.268Z,4.55
2023-04-07T19:32:14.490Z,4.58
2023-04-07T19:34:40.705Z,4.61
2023-04-07T19:37:06.902Z,4.58
2023-04-07T19:39:33.120Z,4.57
2023-04-07T19:41:59.352Z,4.56
2023-04-07T19:44:25.738Z,4.57
2023-04-07T19:46:51.961Z,4.59
2023-04-07T19:49:18.164Z,4.58
2023-04-07T19:51:44.366Z,4.54
2023-04-07T19:54:10.569Z,4.55
2023-04-07T19:56:37.114Z,4.55
2023-04-07T19:59:03.333Z,4.61
2023-04-07T20:01:29.592Z,4.57
2023-04-07T20:03:56.111Z,4.55
2023-04-07T20:06:22.769Z,4.59
2023-04-07T20:08:49.126Z,4.56
2023-04-07T20:11:15.483Z,4.55
2023-04-07T20:13:41.710Z,4.55
2023-04-07T20:16:08.111Z,4.57
2023-04-07T20:18:34.426Z,4.59
2023-04-07T20:21:00.972Z,4.65
2023-04-07T20:23:27.232Z,4.60
2023-04-07T20:25:53.447Z,4.58
2023-04-07T20:28:19.887Z,4.61
2023-04-07T20:30:46.198Z,4.60
2023-04-07T20:33:12.685Z,4.66
2023-04-07T20:35:40.547Z,4.61
2023-04-07T20:38:07.043Z,4.62
2023-04-07T20:40:36.602Z,4.61
2023-04-07T20:43:03.385Z,4.62
2023-04-07T20:45:36.522Z,4.63
2023-04-07T20:48:07.266Z,4.65
2023-04-07T20:50:33.495Z,4.67
2023-04-07T20:52:59.801Z,4.67
2023-04-07T20:55:26.052Z,4.66
2023-04-07T20:57:52.252Z,4.72
2023-04-07T21:00:19.035Z,4.70
2023-04-07T21:02:45.596Z,4.68
2023-04-07T21:05:11.934Z,4.69
2023-04-07T21:07:38.142Z,4.69
2023-04-07T21:10:04.672Z,4.72
2023-04-07T21:12:30.933Z,4.71
2023-04-07T21:14:57.137Z,4.69
2023-04-07T21:17:23.407Z,4.72
2023-04-07T21:19:49.632Z,4.72
2023-04-07T21:22:15.864Z,4.73
2023-04-07T21:24:42.066Z,4.73
2023-04-07T21:27:08.277Z,4.75
2023-04-07T21:29:34.501Z,4.74
2023-04-07T21:32:00.723Z,4.72
2023-04-07T21:34:26.922Z,4.72
2023-04-07T21:36:53.195Z,4.72
2023-04-07T21:39:19.400Z,4.77
2023-04-07T21:41:45.680Z,4.74
2023-04-07T21:44:11.903Z,4.73
2023-04-07T21:46:38.195Z,4.77
2023-04-07T21:49:04.545Z,4.78
2023-04-07T21:51:30.775Z,4.77
2023-04-07T21:53:56.984Z,4.77
2023-04-07T21:56:23.235Z,4.79
2023-04-07T21:58:49.576Z,4.76
2023-04-07T22:01:16.913Z,4.75
2023-04-07T22:03:43.318Z,4.75
2023-04-07T22:06:09.566Z,4.76
2023-04-07T22:08:35.760Z,4.74
2023-04-07T22:11:02.004Z,4.75
2023-04-07T22:13:28.220Z,4.74
2023-04-07T22:15:54.475Z,4.74
2023-04-07T22:18:22.038Z,4.74
2023-04-07T22:20:48.494Z,4.79
2023-04-07T22:23:14.705Z,4.78
2023-04-07T22:25:40.929Z,4.77
2023-04-07T22:28:07.158Z,4.77
2023-04-07T22:30:33.485Z,4.75
2023-04-07T22:32:59.773Z,4.77
2023-04-07T22:35:26.033Z,4.75
2023-04-07T22:37:52.295Z,4.74
2023-04-07T22:40:18.489Z,4.75
2023-04-07T22:42:44.760Z,4.76
2023-04-07T22:45:11.005Z,4.74
2023-04-07T22:47:37.251Z,4.77
2023-04-07T22:50:03.506Z,4.74
2023-04-07T22:52:29.756Z,4.74
2023-04-07T22:54:55.986Z,4.78
2023-04-07T22:57:22.224Z,4.76
2023-04-07T22:59:48.517Z,4.77
2023-04-07T23:02:14.855Z,4.80
2023-04-07T23:04:41.218Z,4.79
2023-04-07T23:07:07.475Z,4.78
2023-04-07T23:09:33.682Z,4.74
2023-04-07T23:11:59.902Z,4.76
2023-04-07T23:14:26.119Z,4.79
2023-04-07T23:16:52.374Z,4.79
2023-04-07T23:19:18.577Z,4.84
2023-04-07T23:21:44.798Z,4.80
2023-04-07T23:24:11.074Z,4.81
2023-04-07T23:26:37.292Z,4.80
2023-04-07T23:29:03.563Z,4.83
2023-04-07T23:31:29.933Z,4.80
2023-04-07T23:33:57.318Z,4.81
2023-04-07T23:36:23.528Z,4.77
2023-04-07T23:38:49.896Z,4.75
2023-04-07T23:41:16.318Z,4.79
2023-04-07T23:43:42.514Z,4.75
2023-04-07T23:46:08.833Z,4.75
2023-04-07T23:48:35.063Z,4.77
2023-04-07T23:51:15.773Z,4.72
2023-04-07T23:53:42.013Z,4.76
2023-04-07T23:56:08.227Z,4.77
2023-04-07T23:58:34.438Z,4.69
